Latest Coastal Weather Observations for Geraldton Airport

IDW60701

Issued at 1:52 pm WST Saturday 1 August 2015 (issued every 10 minutes, with the page automatically refreshed every 10 minutes)

About coastal observations | Map of coastal stations | Coastal observations for WA | Marine services | Other Formats
Station Details ID: 008315 Name: GERALDTON AIRPORT Lat: -28.80 Lon: 114.70 Height: 29.7 m
Data from the previous 72 hours. | See also: Recent months at Geraldton Airport
Date/Time
WST
Temp

°C
Wind Pressure Rain
since 9am
mm
Weather Cloud Vis
km
Sea
Height
m
Swell
Dir
 
Speed
knots
Gust
knots
hPa Trend Height
m
Period
s
Dir
01/01:30pm 16.9 SSE 13 18 1020.7 - 0.0 - Mostly cloudy 10 - - - -
01/01:00pm 17.0 SSE 14 21 1020.8 - 0.0 - Mostly cloudy 10 - - - -
01/12:30pm 17.8 SSE 12 17 1020.8 - 0.0 - Mostly cloudy 10 - - - -
01/12:00pm 17.5 SSE 14 17 1021.0 R 0.0 Fine Partly cloudy 30 - - - -
01/11:30am 18.3 S 13 15 1020.9 - 0.0 - Mostly clear 10 - - - -
01/11:00am 17.7 SE 10 14 1020.9 - 0.0 - Mostly clear 10 - - - -
01/10:30am 17.3 ESE 11 16 1021.0 - 0.0 - Mostly clear 10 - - - -
01/10:00am 16.7 SE 10 13 1020.7 - 0.0 - Mostly clear 10 - - - -
01/09:30am 16.2 ESE 4 11 1020.2 - 0.0 - Mostly clear 10 - - - -
01/09:00am 14.7 NE 5 6 1019.7 R 7.4 Fine Mostly clear 30 - - - -
01/08:30am 13.1 NNE 7 8 1018.9 - 7.4 - Mostly clear 10 - - - -
01/08:00am 11.7 NNE 7 9 1018.4 - 7.2 - Mostly clear 10 - - - -
01/07:30am 10.9 NNE 8 10 1017.9 - 7.2 - Mostly clear 10 - - - -
01/07:00am 10.3 NNE 7 8 1017.5 - 7.2 - Mostly clear 10 - - - -
01/06:30am 10.1 NNE 6 7 1017.1 - 7.2 - Mostly clear 10 - - - -
01/06:00am 9.5 NE 5 6 1016.7 R 7.2 Fine Mostly clear 30 - - - -
01/05:30am 9.2 NE 4 5 1016.3 - 7.2 - - 10 - - - -
01/05:00am 9.9 NNE 5 5 1016.0 - 7.2 - - 10 - - - -
01/04:52am 9.9 NNE 4 5 1016.0 - 7.2 - - 10 - - - -
01/04:30am 9.9 CALM 0 0 1015.8 - 7.2 - - 0.8 - - - -
01/04:22am 10.2 CALM 0 0 1015.7 - 7.2 - - 4 - - - -
01/04:00am 10.2 E 3 3 1015.7 - 7.2 - - 10 - - - -
01/03:30am 10.4 SE 4 6 1015.7 - 7.2 - - 10 - - - -
01/03:00am 10.8 ENE 4 5 1015.6 - 7.2 - - 10 - - - -
01/02:30am 11.3 NE 5 5 1015.5 - 7.2 - - 10 - - - -
01/02:00am 11.6 NNE 5 7 1015.4 - 7.2 - - 10 - - - -
01/01:30am 12.4 NNE 6 6 1015.2 - 7.2 - - 10 - - - -
01/01:00am 11.7 NE 4 5 1015.1 - 7.2 - - 10 - - - -
01/12:30am 12.5 ESE 4 4 1015.0 - 7.2 - Partly cloudy 10 - - - -
01/12:00am 12.2 N 5 6 1014.8 - 7.2 - - 10 - - - -
 
Date/Time
WST
Temp

°C
Wind Pressure Rain
since 9am
mm
Weather Cloud Vis
km
Sea
Height
m
Swell
Dir
 
Speed
knots
Gust
knots
hPa Trend Height
m
Period
s
Dir
31/11:30pm 12.5 N 6 6 1014.7 - 7.2 - - 10 - - - -
31/11:00pm 13.1 NW 3 4 1014.9 - 7.2 - - 10 - - - -
31/10:30pm 15.0 SW 6 7 1014.6 - 7.2 - - 10 - - - -
31/10:00pm 15.4 WSW 7 8 1014.6 - 7.2 - - 10 - - - -
31/09:30pm 14.8 SW 5 7 1014.3 - 7.2 - - 10 - - - -
31/09:00pm 14.8 N 5 6 1014.1 - 7.2 - Mostly clear 10 - - - -
31/08:30pm 14.7 N 6 7 1013.8 - 7.2 - Partly cloudy 10 - - - -
31/08:00pm 15.3 NNW 5 6 1013.7 - 7.2 - Partly cloudy 10 - - - -
31/07:30pm 16.2 WNW 7 8 1013.3 - 7.2 - Partly cloudy 10 - - - -
31/07:00pm 16.6 WSW 13 18 1013.1 - 7.2 - Partly cloudy 10 - - - -
31/06:30pm 17.5 WNW 11 14 1012.7 - 7.2 - Partly cloudy 10 - - - -
31/06:00pm 17.1 NNW 9 10 1012.2 - 7.2 - Cloudy 10 - - - -
31/05:33pm 16.7 WNW 11 16 1012.4 - 7.2 - Partly cloudy 10 - - - -
31/05:30pm 16.7 WNW 12 16 1012.4 - 7.2 Showers Mostly clear 10 - - - -
31/05:09pm 18.0 WNW 12 27 1012.3 - 6.6 Showers Mostly clear 6 - - - -
31/05:00pm 19.1 NW 12 16 1012.0 - 6.6 - Mostly clear 10 - - - -
31/04:30pm 19.4 WNW 15 21 1012.0 - 6.6 - Partly cloudy 10 - - - -
31/04:00pm 20.6 W 16 21 1011.8 - 6.6 - Partly cloudy 10 - - - -
31/03:30pm 20.9 WNW 12 17 1011.7 - 6.6 - Partly cloudy 10 - - - -
31/03:00pm 20.9 WNW 11 15 1012.0 F 6.6 Fine Mostly cloudy 30 - - - -
31/02:30pm 19.5 W 9 13 1012.1 - 6.6 - Mostly clear 10 - - - -
31/02:00pm 19.8 W 8 11 1012.3 - 6.6 - Mostly clear 10 - - - -
31/01:30pm 18.2 W 9 14 1012.8 - 6.6 - Mostly clear 10 - - - -
31/01:13pm 18.3 W 8 12 1012.3 - 6.6 Showers Partly cloudy 6 - - - -
31/01:00pm 18.4 W 9 12 1013.1 - 6.6 Showers Mostly clear 10 - - - -
31/12:30pm 18.2 W 4 6 1012.9 - 6.6 Showers Partly cloudy 10 - - - -
31/12:00pm 17.6 W 9 12 1013.9 R 6.0 Showers Cloudy 8 - - - -
31/11:47am 17.6 SW 8 11 1013.5 - 6.0 - Mostly clear 10 - - - -
31/11:30am 17.6 WSW 9 12 1014.0 - 5.6 Showers Mostly clear 7 - - - -
31/11:08am 18.0 WSW 17 19 1014.1 - 4.6 Showers Mostly clear 9 - - - -
31/11:00am 18.6 W 6 9 - - - Showers Mostly clear 10 - - - -
31/10:54am 18.6 W 6 9 1013.7 - 4.4 Showers Mostly clear 10 - - - -
31/10:30am 18.2 WSW 8 11 1013.2 - 4.4 Showers Mostly clear 10 - - - -
31/10:14am 17.8 WSW 13 19 1013.9 - 4.4 Showers Mostly clear 10 - - - -
31/10:00am 17.9 WSW 15 22 1014.1 - 4.2 Showers Partly cloudy 8 - - - -
31/09:46am 18.1 WSW 14 19 1013.8 - 3.8 Showers Mostly clear 7 - - - -
31/09:30am 18.4 WSW 13 17 1013.5 - 3.8 - Mostly cloudy 10 - - - -
31/09:00am 18.5 NNW 3 5 1013.0 F 8.0 Thunderstorm Cloudy 2 - - - -
31/08:42am 18.4 N 4 6 1013.3 - 7.2 Showers Mostly clear 3 - - - -
31/08:30am 18.3 NW 3 5 1013.3 - 6.4 Showers Partly cloudy 5 - - - -
31/08:27am 18.3 NNW 2 5 1013.4 - 6.2 Showers Partly cloudy 5 - - - -
31/08:00am 18.1 NNW 4 5 1013.5 - 6.2 - Partly cloudy 10 - - - -
31/07:44am 17.9 NW 4 5 1013.6 - 6.2 - Partly cloudy 10 - - - -
31/07:30am 17.7 NNW 4 5 1013.6 - 6.2 - Mostly clear 10 - - - -
31/07:22am 17.6 N 4 5 1013.5 - 6.2 - Partly cloudy 8 - - - -
31/07:00am 17.7 WNW 8 12 1013.4 - 5.6 Thunderstorm Partly cloudy 7 - - - -
31/06:55am 17.7 WNW 8 12 1013.3 - 5.6 Thunderstorm Partly cloudy 10 - - - -
31/06:30am 17.6 N 6 7 1013.5 - 4.0 Showers Partly cloudy 10 - - - -
31/06:00am 17.9 NNW 8 10 1013.3 F 2.0 Thunder Cloudy 15 - - - -
31/05:48am 17.8 N 9 13 1013.2 - 2.0 - Partly cloudy 10 - - - -
31/05:30am 18.5 N 5 7 1013.2 - 1.8 - Cloudy 6 - - - -
31/05:00am 18.0 N 4 5 1013.3 - 1.2 - Cloudy 5 - - - -
31/04:30am 17.8 NE 6 6 1013.5 - 1.2 - Partly cloudy 0.5 - - - -
31/04:00am 18.7 N 4 5 1014.2 - 1.0 - Partly cloudy 0.7 - - - -
31/03:43am 18.8 NNW 3 3 1014.4 - 1.0 - Partly cloudy 0.5 - - - -
31/03:30am 18.5 NNW 2 4 1014.5 - 1.0 - Partly cloudy 0.4 - - - -
31/03:00am 18.7 CALM 0 0 1014.4 - 1.0 - Cloudy 2 - - - -
31/02:30am 18.8 WNW 1 5 1015.2 - 1.0 - Partly cloudy 3 - - - -
31/02:29am 18.8 WNW 1 5 1015.2 - 1.0 - Partly cloudy 3 - - - -
31/02:28am 18.7 CALM 0 5 1015.2 - 1.0 - Partly cloudy 3 - - - -
31/02:00am 19.5 WNW 3 5 1015.4 - 0.8 - Partly cloudy 5 - - - -
31/01:53am 19.5 NNW 4 5 1015.8 - 0.6 - Partly cloudy 8 - - - -
31/01:30am 19.4 NW 4 6 1016.0 - 0.2 - Partly cloudy 10 - - - -
31/01:00am 20.1 W 5 8 1016.0 - 0.2 - Partly cloudy 10 - - - -
31/12:30am 20.3 NNW 7 10 1016.3 - 0.2 - Partly cloudy 10 - - - -
31/12:07am 20.3 NNW 8 11 1016.5 - 0.2 - Partly cloudy 10 - - - -
31/12:00am 20.2 NNW 8 11 1016.5 - 0.2 - Cloudy 10 - - - -
 
Date/Time
WST
Temp

°C
Wind Pressure Rain
since 9am
mm
Weather Cloud Vis
km
Sea
Height
m
Swell
Dir
 
Speed
knots
Gust
knots
hPa Trend Height
m
Period
s
Dir
30/11:30pm 20.0 N 8 9 1016.9 - 0.2 - Partly cloudy 10 - - - -
30/11:00pm 18.2 NNE 7 8 1017.1 - 0.2 - Partly cloudy 10 - - - -
30/10:30pm 18.4 NNE 7 9 1017.2 - 0.2 - Partly cloudy 10 - - - -
30/10:00pm 18.9 N 7 9 1017.4 - 0.2 - Partly cloudy 10 - - - -
30/09:30pm 19.2 NNE 8 9 1017.6 - 0.2 - Partly cloudy 10 - - - -
30/09:00pm 19.1 NE 9 11 1018.0 - 0.2 - Partly cloudy 10 - - - -
30/08:30pm 19.4 NNE 8 10 1017.9 - 0.2 - Partly cloudy 10 - - - -
30/08:00pm 19.3 NNE 7 9 1017.8 - 0.2 - Partly cloudy 10 - - - -
30/07:30pm 19.4 NNE 4 8 1017.7 - 0.2 - Partly cloudy 10 - - - -
30/07:00pm 19.5 E 4 6 1017.3 - 0.2 - Partly cloudy 10 - - - -
30/06:30pm 19.7 NE 6 10 1017.0 - 0.2 - Partly cloudy 10 - - - -
30/06:00pm 19.9 NE 8 10 1016.7 - 0.2 - Cloudy 10 - - - -
30/05:30pm 19.9 ENE 11 14 1016.5 - 0.2 - Partly cloudy 10 - - - -
30/05:00pm 20.0 E 11 15 1016.3 - 0.2 - Partly cloudy 10 - - - -
30/04:30pm 20.2 E 12 15 1016.3 - 0.2 - Partly cloudy 10 - - - -
30/04:00pm 20.3 E 12 15 1016.3 - 0.2 - Partly cloudy 10 - - - -
30/03:30pm 19.9 ESE 7 9 1016.9 - 0.2 - Partly cloudy 10 - - - -
30/03:00pm 18.9 SE 7 9 1017.7 F 0.0 Showers Cloudy 15 - - - -
30/02:30pm 19.0 SE 7 9 1018.1 - 0.0 - Partly cloudy 10 - - - -
30/02:00pm 18.8 SE 9 11 1018.4 - 0.0 Showers Partly cloudy 10 - - - -
30/01:30pm 18.7 SE 10 12 1018.7 - 0.0 - Mostly clear 10 - - - -
30/01:00pm 18.9 SSE 8 11 1019.2 - 0.0 Showers Mostly clear 10 - - - -
30/12:30pm 19.2 SE 8 9 1019.6 - 0.0 - Mostly clear 10 - - - -
30/12:00pm 19.4 SSW 10 13 1020.2 R 0.0 Showers Cloudy 15 - - - -
30/11:30am 20.1 N 7 10 1019.9 - 0.0 Showers Mostly cloudy 10 - - - -
30/11:00am 19.7 N 10 13 1019.8 - 0.0 - Mostly cloudy 10 - - - -
30/10:30am 19.8 NNE 9 13 1020.1 - 0.0 - Mostly clear 10 - - - -
30/10:00am 19.9 NNE 5 7 1020.3 - 0.0 - Mostly clear 10 - - - -
30/09:30am 19.4 NE 3 6 1020.1 - 0.0 - Mostly clear 10 - - - -
30/09:00am 19.2 N 5 7 1020.0 R 0.4 Distant precip. Cloudy 30 - - - -
30/08:30am 18.8 NNE 8 10 1019.2 - 0.4 - Mostly clear 10 - - - -
30/08:00am 18.8 NNE 11 14 1019.1 - 0.4 - Mostly clear 10 - - - -
30/07:30am 18.3 NNE 8 10 1018.6 - 0.4 - Mostly clear 10 - - - -
30/07:00am 17.8 NNE 8 10 1018.4 - 0.4 - Mostly clear 10 - - - -
30/06:30am 17.8 NNE 9 10 1018.0 - 0.4 - Mostly clear 10 - - - -
30/06:00am 18.4 NNE 9 11 1018.3 F 0.4 Recent precip. Mostly cloudy 30 - - - -
30/05:30am 18.2 N 6 9 1018.6 - 0.4 - Partly cloudy 10 - - - -
30/05:00am 18.2 N 7 8 1018.6 - 0.4 - Partly cloudy 10 - - - -
30/04:30am 18.0 NNE 6 7 1018.7 - 0.4 - Cloudy 10 - - - -
30/04:00am 18.3 NNW 5 7 1018.9 - 0.4 - Partly cloudy 10 - - - -
30/03:30am 17.5 NNE 9 11 1018.9 - 0.4 - Partly cloudy 10 - - - -
30/03:00am 17.4 NNE 12 15 1019.3 - 0.4 - Cloudy 10 - - - -
30/02:30am 17.4 NNE 6 10 1019.4 - 0.4 - Partly cloudy 10 - - - -
30/02:00am 17.9 NNE 7 9 1019.6 - 0.4 - Partly cloudy 10 - - - -
30/01:30am 18.3 NNE 9 12 1019.7 - 0.4 - Partly cloudy 10 - - - -
30/01:00am 18.3 NNE 8 13 1019.8 - 0.4 - Partly cloudy 10 - - - -
30/12:30am 18.3 NNE 9 11 1019.7 - 0.4 - Partly cloudy 10 - - - -
30/12:00am 18.4 NNE 8 11 1020.3 - 0.4 - Mostly cloudy 10 - - - -
 
Date/Time
WST
Temp

°C
Wind Pressure Rain
since 9am
mm
Weather Cloud Vis
km
Sea
Height
m
Swell
Dir
 
Speed
knots
Gust
knots
hPa Trend Height
m
Period
s
Dir
29/11:30pm 18.4 N 7 9 1020.5 - 0.4 - Cloudy 10 - - - -
29/11:00pm 18.8 N 9 14 1020.2 - 0.4 - Cloudy 10 - - - -
29/10:30pm 18.9 N 10 11 1020.3 - 0.4 - Partly cloudy 10 - - - -
29/10:00pm 19.1 N 7 11 1020.2 - 0.2 - Cloudy 10 - - - -
29/09:30pm 18.4 N 4 5 1019.7 - 0.2 - Cloudy 10 - - - -
29/09:00pm 18.5 NNE 7 8 1019.4 - 0.2 - Mostly cloudy 10 - - - -
29/08:30pm 18.7 N 5 7 1019.4 - 0.2 - Partly cloudy 10 - - - -
29/08:00pm 18.8 N 6 7 1019.5 - 0.2 - Cloudy 10 - - - -
29/07:30pm 18.0 NNE 5 7 1019.3 - 0.2 - Cloudy 10 - - - -
29/07:00pm 18.7 N 1 3 1019.0 - 0.2 - Partly cloudy 10 - - - -
29/06:30pm 18.7 N 4 5 1018.5 - 0.2 - Partly cloudy 10 - - - -
29/06:00pm 19.3 N 5 6 1018.4 - 0.2 - Mostly clear 10 - - - -
29/05:30pm 20.2 N 5 6 1018.3 - 0.2 - Mostly clear 10 - - - -
29/05:00pm 20.7 WNW 5 6 1018.6 - 0.2 - Mostly clear 10 - - - -
29/04:30pm 20.9 WNW 4 5 1018.2 - 0.2 - Mostly clear 10 - - - -
29/04:00pm 20.9 NW 7 9 1018.5 - 0.2 - Mostly clear 10 - - - -
29/03:47pm 20.9 NW 9 11 1018.6 - 0.2 - Partly cloudy 10 - - - -
29/03:30pm 21.1 NW 7 9 1018.3 - 0.2 - Partly cloudy 10 - - - -
29/03:18pm 21.1 NW 9 11 1018.1 - 0.2 - Partly cloudy 10 - - - -
29/03:13pm 21.1 NW 9 10 1018.0 - 0.2 - Partly cloudy 10 - - - -
29/03:00pm 21.1 NW 9 11 1018.2 R 0.2 Fine Mostly cloudy 30 - - - -
29/02:30pm 21.7 WNW 9 12 1018.1 - 0.2 - Mostly clear 10 - - - -
29/02:00pm 21.8 NW 10 13 1018.1 - 0.2 - Mostly clear 10 - - - -

Other Formats:

Comma delimited format used in spreadsheet applications
http://www.bom.gov.au/fwo/IDW60701/IDW60701.94403.axf

JavaScript Object Notation format (JSON) in row-major order
http://www.bom.gov.au/fwo/IDW60701/IDW60701.94403.json